sensor_id;sensor_type;location;lat;lon;timestamp;pressure;altitude;pressure_sealevel;temperature;humidity
5595;BME280;1003;48.002;7.788;2023-02-21T00:02:41;99572.44;;;3.95;100.00
5595;BME280;1003;48.002;7.788;2023-02-21T00:05:27;99564.03;;;3.90;100.00
5595;BME280;1003;48.002;7.788;2023-02-21T00:08:12;99548.88;;;3.81;100.00
5595;BME280;1003;48.002;7.788;2023-02-21T00:10:56;99541.28;;;3.75;100.00
5595;BME280;1003;48.002;7.788;2023-02-21T00:13:41;99529.66;;;3.74;100.00
5595;BME280;1003;48.002;7.788;2023-02-21T00:16:25;99531.34;;;3.75;100.00
5595;BME280;1003;48.002;7.788;2023-02-21T00:19:10;99518.28;;;3.82;100.00
5595;BME280;1003;48.002;7.788;2023-02-21T00:21:56;99490.13;;;3.85;100.00
5595;BME280;1003;48.002;7.788;2023-02-21T00:24:41;99485.09;;;3.82;100.00
5595;BME280;1003;48.002;7.788;2023-02-21T00:27:25;99460.56;;;3.97;100.00
5595;BME280;1003;48.002;7.788;2023-02-21T00:30:11;99452.28;;;3.98;100.00
5595;BME280;1003;48.002;7.788;2023-02-21T00:32:55;99452.19;;;4.34;100.00
5595;BME280;1003;48.002;7.788;2023-02-21T00:35:40;99437.41;;;4.42;100.00
5595;BME280;1003;48.002;7.788;2023-02-21T00:38:26;99429.75;;;4.31;100.00
5595;BME280;1003;48.002;7.788;2023-02-21T00:41:10;99433.00;;;4.30;100.00
5595;BME280;1003;48.002;7.788;2023-02-21T00:43:55;99447.41;;;4.45;100.00
5595;BME280;1003;48.002;7.788;2023-02-21T00:46:40;99447.31;;;4.40;100.00
5595;BME280;1003;48.002;7.788;2023-02-21T00:49:25;99435.72;;;4.41;100.00
5595;BME280;1003;48.002;7.788;2023-02-21T00:52:09;99443.25;;;4.45;100.00
5595;BME280;1003;48.002;7.788;2023-02-21T00:54:55;99449.97;;;4.48;100.00
5595;BME280;1003;48.002;7.788;2023-02-21T00:57:40;99452.50;;;4.51;100.00
5595;BME280;1003;48.002;7.788;2023-02-21T01:00:24;99458.38;;;4.55;100.00
5595;BME280;1003;48.002;7.788;2023-02-21T01:03:09;99458.28;;;4.50;100.00
5595;BME280;1003;48.002;7.788;2023-02-21T01:05:54;99463.06;;;4.39;100.00
5595;BME280;1003;48.002;7.788;2023-02-21T01:08:41;99475.56;;;4.42;100.00
5595;BME280;1003;48.002;7.788;2023-02-21T01:11:27;99490.91;;;4.64;100.00
5595;BME280;1003;48.002;7.788;2023-02-21T01:14:13;99494.06;;;4.57;100.00
5595;BME280;1003;48.002;7.788;2023-02-21T01:16:57;99512.38;;;4.59;100.00
5595;BME280;1003;48.002;7.788;2023-02-21T01:19:42;99521.63;;;4.64;100.00
5595;BME280;1003;48.002;7.788;2023-02-21T01:22:27;99556.41;;;4.61;100.00
5595;BME280;1003;48.002;7.788;2023-02-21T01:25:14;99561.22;;;4.52;100.00
5595;BME280;1003;48.002;7.788;2023-02-21T01:28:00;99571.72;;;4.40;100.00
5595;BME280;1003;48.002;7.788;2023-02-21T01:30:44;99573.34;;;4.37;100.00
5595;BME280;1003;48.002;7.788;2023-02-21T01:33:34;99566.97;;;4.51;100.00
5595;BME280;1003;48.002;7.788;2023-02-21T01:36:19;99581.06;;;4.51;100.00
5595;BME280;1003;48.002;7.788;2023-02-21T01:39:04;99581.81;;;4.46;100.00
5595;BME280;1003;48.002;7.788;2023-02-21T01:41:48;99588.63;;;4.54;100.00
5595;BME280;1003;48.002;7.788;2023-02-21T01:44:38;99591.78;;;4.46;100.00
5595;BME280;1003;48.002;7.788;2023-02-21T01:47:24;99576.53;;;4.31;100.00
5595;BME280;1003;48.002;7.788;2023-02-21T01:50:21;99572.34;;;4.30;100.00
5595;BME280;1003;48.002;7.788;2023-02-21T01:53:13;99549.19;;;4.33;100.00
5595;BME280;1003;48.002;7.788;2023-02-21T01:56:00;99539.25;;;4.33;100.00
5595;BME280;1003;48.002;7.788;2023-02-21T01:58:47;99531.06;;;4.38;100.00
5595;BME280;1003;48.002;7.788;2023-02-21T02:01:45;99543.63;;;4.44;100.00
5595;BME280;1003;48.002;7.788;2023-02-21T02:04:32;99548.56;;;4.43;100.00
5595;BME280;1003;48.002;7.788;2023-02-21T02:07:17;99543.81;;;4.54;100.00
5595;BME280;1003;48.002;7.788;2023-02-21T02:10:05;99556.25;;;4.52;100.00
5595;BME280;1003;48.002;7.788;2023-02-21T02:13:15;99557.84;;;4.52;100.00
5595;BME280;1003;48.002;7.788;2023-02-21T02:15:56;99565.31;;;4.52;100.00
5595;BME280;1003;48.002;7.788;2023-02-21T02:18:50;99552.53;;;4.35;100.00
5595;BME280;1003;48.002;7.788;2023-02-21T02:22:08;99557.63;;;4.39;100.00
5595;BME280;1003;48.002;7.788;2023-02-21T02:24:55;99564.84;;;4.29;100.00
5595;BME280;1003;48.002;7.788;2023-02-21T02:28:12;99557.91;;;4.14;100.00
5595;BME280;1003;48.002;7.788;2023-02-21T02:31:05;99528.72;;;3.69;100.00
5595;BME280;1003;48.002;7.788;2023-02-21T02:36:56;99461.56;;;2.63;100.00
5595;BME280;1003;48.002;7.788;2023-02-21T02:39:39;99412.75;;;2.01;100.00
5595;BME280;1003;48.002;7.788;2023-02-21T02:42:18;99378.88;;;1.71;100.00
5595;BME280;1003;48.002;7.788;2023-02-21T02:44:52;99357.19;;;1.63;100.00
5595;BME280;1003;48.002;7.788;2023-02-21T02:47:30;99351.38;;;1.62;100.00
5595;BME280;1003;48.002;7.788;2023-02-21T02:49:59;99362.63;;;1.51;100.00
5595;BME280;1003;48.002;7.788;2023-02-21T02:52:28;99353.28;;;1.42;100.00
5595;BME280;1003;48.002;7.788;2023-02-21T02:54:58;99349.66;;;1.31;100.00
5595;BME280;1003;48.002;7.788;2023-02-21T02:57:29;99351.16;;;1.26;100.00
5595;BME280;1003;48.002;7.788;2023-02-21T03:00:05;99357.78;;;1.27;100.00
5595;BME280;1003;48.002;7.788;2023-02-21T03:02:55;99380.94;;;1.29;100.00
5595;BME280;1003;48.002;7.788;2023-02-21T03:05:45;99388.31;;;1.27;100.00
5595;BME280;1003;48.002;7.788;2023-02-21T03:08:30;99417.97;;;1.24;100.00
5595;BME280;1003;48.002;7.788;2023-02-21T03:11:06;99455.81;;;1.22;100.00
5595;BME280;1003;48.002;7.788;2023-02-21T03:13:44;99496.72;;;1.11;100.00
5595;BME280;1003;48.002;7.788;2023-02-21T03:16:18;99547.81;;;1.09;100.00
5595;BME280;1003;48.002;7.788;2023-02-21T03:18:51;99578.06;;;1.01;100.00
5595;BME280;1003;48.002;7.788;2023-02-21T03:21:25;99623.00;;;0.88;100.00
5595;BME280;1003;48.002;7.788;2023-02-21T03:23:59;99658.13;;;0.79;100.00
5595;BME280;1003;48.002;7.788;2023-02-21T03:26:32;99682.59;;;0.72;100.00
5595;BME280;1003;48.002;7.788;2023-02-21T03:29:02;99710.13;;;0.59;100.00
5595;BME280;1003;48.002;7.788;2023-02-21T03:31:35;99730.47;;;0.51;100.00
5595;BME280;1003;48.002;7.788;2023-02-21T03:34:03;99743.25;;;0.41;100.00
5595;BME280;1003;48.002;7.788;2023-02-21T03:36:31;99767.50;;;0.50;100.00
5595;BME280;1003;48.002;7.788;2023-02-21T03:38:59;99805.03;;;0.61;100.00
5595;BME280;1003;48.002;7.788;2023-02-21T03:41:27;99835.00;;;0.68;100.00
5595;BME280;1003;48.002;7.788;2023-02-21T03:43:54;99874.13;;;0.77;100.00
5595;BME280;1003;48.002;7.788;2023-02-21T03:46:21;99902.66;;;0.90;100.00
5595;BME280;1003;48.002;7.788;2023-02-21T03:48:48;99932.53;;;0.94;100.00
5595;BME280;1003;48.002;7.788;2023-02-21T03:51:15;99946.00;;;1.01;100.00
5595;BME280;1003;48.002;7.788;2023-02-21T03:53:42;99967.75;;;1.08;100.00
5595;BME280;1003;48.002;7.788;2023-02-21T03:56:11;99984.22;;;1.08;100.00
5595;BME280;1003;48.002;7.788;2023-02-21T03:58:38;99992.38;;;1.05;100.00
5595;BME280;1003;48.002;7.788;2023-02-21T04:01:05;100005.78;;;1.10;100.00
5595;BME280;1003;48.002;7.788;2023-02-21T04:03:32;100007.72;;;1.17;100.00
5595;BME280;1003;48.002;7.788;2023-02-21T04:05:59;100003.56;;;1.16;100.00
5595;BME280;1003;48.002;7.788;2023-02-21T04:08:26;100022.47;;;1.14;100.00
5595;BME280;1003;48.002;7.788;2023-02-21T04:10:52;100034.75;;;1.13;100.00
5595;BME280;1003;48.002;7.788;2023-02-21T04:13:21;100044.75;;;1.14;100.00
5595;BME280;1003;48.002;7.788;2023-02-21T04:15:49;100059.59;;;1.14;100.00
5595;BME280;1003;48.002;7.788;2023-02-21T04:18:16;100072.88;;;1.16;100.00
5595;BME280;1003;48.002;7.788;2023-02-21T04:20:43;100088.13;;;1.25;100.00
5595;BME280;1003;48.002;7.788;2023-02-21T04:23:11;100099.72;;;1.26;100.00
5595;BME280;1003;48.002;7.788;2023-02-21T04:25:39;100109.50;;;1.23;100.00
5595;BME280;1003;48.002;7.788;2023-02-21T04:28:06;100128.41;;;1.21;100.00
5595;BME280;1003;48.002;7.788;2023-02-21T04:30:34;100158.38;;;1.27;100.00
5595;BME280;1003;48.002;7.788;2023-02-21T04:33:01;100177.97;;;1.23;100.00
5595;BME280;1003;48.002;7.788;2023-02-21T04:35:29;100201.31;;;1.28;100.00
5595;BME280;1003;48.002;7.788;2023-02-21T04:37:56;100234.63;;;1.54;100.00
5595;BME280;1003;48.002;7.788;2023-02-21T04:40:23;100249.50;;;1.54;100.00
5595;BME280;1003;48.002;7.788;2023-02-21T04:42:50;100158.97;;;1.41;100.00
5595;BME280;1003;48.002;7.788;2023-02-21T04:45:17;100141.44;;;1.37;100.00
5595;BME280;1003;48.002;7.788;2023-02-21T04:47:45;100136.94;;;1.28;100.00
5595;BME280;1003;48.002;7.788;2023-02-21T04:50:13;100134.13;;;1.20;100.00
5595;BME280;1003;48.002;7.788;2023-02-21T04:52:40;100136.53;;;0.99;100.00
5595;BME280;1003;48.002;7.788;2023-02-21T04:55:07;100127.75;;;0.87;100.00
5595;BME280;1003;48.002;7.788;2023-02-21T04:57:34;100131.22;;;0.72;100.00
5595;BME280;1003;48.002;7.788;2023-02-21T05:00:02;100128.22;;;0.60;100.00
5595;BME280;1003;48.002;7.788;2023-02-21T05:02:31;100119.47;;;0.49;100.00
5595;BME280;1003;48.002;7.788;2023-02-21T05:04:59;100129.91;;;0.43;100.00
5595;BME280;1003;48.002;7.788;2023-02-21T05:07:26;100126.38;;;0.38;100.00
5595;BME280;1003;48.002;7.788;2023-02-21T05:09:53;100132.50;;;0.46;100.00
5595;BME280;1003;48.002;7.788;2023-02-21T05:12:20;100138.53;;;0.51;100.00
5595;BME280;1003;48.002;7.788;2023-02-21T05:14:47;100129.47;;;0.52;100.00
5595;BME280;1003;48.002;7.788;2023-02-21T05:17:14;100144.31;;;0.52;100.00
5595;BME280;1003;48.002;7.788;2023-02-21T05:19:41;100148.47;;;0.53;100.00
5595;BME280;1003;48.002;7.788;2023-02-21T05:22:10;100156.47;;;0.47;100.00
5595;BME280;1003;48.002;7.788;2023-02-21T05:24:41;100149.75;;;0.45;100.00
5595;BME280;1003;48.002;7.788;2023-02-21T05:27:08;100155.22;;;0.38;100.00
5595;BME280;1003;48.002;7.788;2023-02-21T05:29:36;100158.53;;;0.38;100.00
5595;BME280;1003;48.002;7.788;2023-02-21T05:32:03;100161.34;;;0.46;100.00
5595;BME280;1003;48.002;7.788;2023-02-21T05:34:30;100126.56;;;0.61;100.00
5595;BME280;1003;48.002;7.788;2023-02-21T05:36:57;100124.22;;;0.64;100.00
5595;BME280;1003;48.002;7.788;2023-02-21T05:39:25;100134.63;;;0.57;100.00
5595;BME280;1003;48.002;7.788;2023-02-21T05:41:52;100138.38;;;0.48;100.00
5595;BME280;1003;48.002;7.788;2023-02-21T05:44:19;100141.41;;;0.43;100.00
5595;BME280;1003;48.002;7.788;2023-02-21T05:46:47;100141.56;;;0.46;100.00
5595;BME280;1003;48.002;7.788;2023-02-21T05:49:14;100140.06;;;0.32;100.00
5595;BME280;1003;48.002;7.788;2023-02-21T05:51:42;100136.13;;;0.17;100.00
5595;BME280;1003;48.002;7.788;2023-02-21T05:54:16;100126.22;;;-0.01;100.00
5595;BME280;1003;48.002;7.788;2023-02-21T05:56:47;100123.56;;;-0.05;100.00
5595;BME280;1003;48.002;7.788;2023-02-21T05:59:16;100124.72;;;-0.15;100.00
5595;BME280;1003;48.002;7.788;2023-02-21T06:01:44;100122.34;;;-0.30;100.00
5595;BME280;1003;48.002;7.788;2023-02-21T06:04:12;100122.84;;;-0.37;100.00
5595;BME280;1003;48.002;7.788;2023-02-21T06:06:39;100128.75;;;-0.33;100.00
5595;BME280;1003;48.002;7.788;2023-02-21T06:09:07;100130.31;;;-0.35;100.00
5595;BME280;1003;48.002;7.788;2023-02-21T06:11:37;100135.31;;;-0.34;100.00
5595;BME280;1003;48.002;7.788;2023-02-21T06:14:12;100146.91;;;-0.33;100.00
5595;BME280;1003;48.002;7.788;2023-02-21T06:16:40;100147.34;;;-0.23;100.00
5595;BME280;1003;48.002;7.788;2023-02-21T06:19:10;100152.28;;;-0.23;100.00
5595;BME280;1003;48.002;7.788;2023-02-21T06:21:38;100152.72;;;-0.32;100.00
5595;BME280;1003;48.002;7.788;2023-02-21T06:24:07;100159.34;;;-0.31;100.00
5595;BME280;1003;48.002;7.788;2023-02-21T06:26:34;100166.81;;;-0.30;100.00
5595;BME280;1003;48.002;7.788;2023-02-21T06:29:02;100164.41;;;-0.28;100.00
5595;BME280;1003;48.002;7.788;2023-02-21T06:31:31;100165.19;;;-0.29;100.00
5595;BME280;1003;48.002;7.788;2023-02-21T06:33:58;100166.22;;;-0.25;100.00
5595;BME280;1003;48.002;7.788;2023-02-21T06:36:28;100178.84;;;-0.19;100.00
5595;BME280;1003;48.002;7.788;2023-02-21T06:38:56;100188.13;;;-0.15;100.00
5595;BME280;1003;48.002;7.788;2023-02-21T06:41:26;100192.41;;;-0.11;100.00
5595;BME280;1003;48.002;7.788;2023-02-21T06:43:55;100203.47;;;-0.05;100.00
5595;BME280;1003;48.002;7.788;2023-02-21T06:46:26;100206.28;;;0.03;100.00
5595;BME280;1003;48.002;7.788;2023-02-21T06:48:55;100212.09;;;0.04;100.00
5595;BME280;1003;48.002;7.788;2023-02-21T06:51:22;100216.97;;;0.02;100.00
5595;BME280;1003;48.002;7.788;2023-02-21T06:53:54;100230.63;;;0.12;100.00
5595;BME280;1003;48.002;7.788;2023-02-21T06:56:22;100242.19;;;0.13;100.00
5595;BME280;1003;48.002;7.788;2023-02-21T06:58:49;100239.66;;;0.11;100.00
5595;BME280;1003;48.002;7.788;2023-02-21T07:01:16;100247.13;;;0.13;100.00
5595;BME280;1003;48.002;7.788;2023-02-21T07:03:44;100250.09;;;0.06;100.00
5595;BME280;1003;48.002;7.788;2023-02-21T07:06:13;100251.78;;;0.07;100.00
5595;BME280;1003;48.002;7.788;2023-02-21T07:08:40;100257.72;;;0.10;100.00
5595;BME280;1003;48.002;7.788;2023-02-21T07:11:08;100255.84;;;0.22;100.00
5595;BME280;1003;48.002;7.788;2023-02-21T07:13:35;100259.91;;;0.38;100.00
5595;BME280;1003;48.002;7.788;2023-02-21T07:16:03;100274.63;;;0.53;100.00
5595;BME280;1003;48.002;7.788;2023-02-21T07:18:31;100287.78;;;0.70;100.00
5595;BME280;1003;48.002;7.788;2023-02-21T07:20:58;100270.53;;;0.89;100.00
5595;BME280;1003;48.002;7.788;2023-02-21T07:23:27;100283.97;;;1.12;100.00
5595;BME280;1003;48.002;7.788;2023-02-21T07:25:54;100293.88;;;1.30;100.00
5595;BME280;1003;48.002;7.788;2023-02-21T07:28:21;100303.00;;;1.50;100.00
5595;BME280;1003;48.002;7.788;2023-02-21T07:30:48;100312.06;;;1.68;100.00
5595;BME280;1003;48.002;7.788;2023-02-21T07:33:15;100320.16;;;1.83;100.00
5595;BME280;1003;48.002;7.788;2023-02-21T07:35:42;100316.81;;;1.82;100.00
5595;BME280;1003;48.002;7.788;2023-02-21T07:38:09;100333.00;;;1.94;100.00
5595;BME280;1003;48.002;7.788;2023-02-21T07:40:37;100324.25;;;2.02;100.00
5595;BME280;1003;48.002;7.788;2023-02-21T07:43:04;100319.59;;;2.29;100.00
5595;BME280;1003;48.002;7.788;2023-02-21T07:45:31;100317.44;;;2.36;100.00
5595;BME280;1003;48.002;7.788;2023-02-21T07:47:58;100305.34;;;2.44;100.00
5595;BME280;1003;48.002;7.788;2023-02-21T07:50:25;100299.59;;;2.45;100.00
5595;BME280;1003;48.002;7.788;2023-02-21T07:52:52;100295.53;;;2.68;100.00
5595;BME280;1003;48.002;7.788;2023-02-21T07:55:19;100290.19;;;3.01;100.00
5595;BME280;1003;48.002;7.788;2023-02-21T07:57:47;100278.47;;;3.19;100.00
5595;BME280;1003;48.002;7.788;2023-02-21T08:00:15;100263.75;;;3.24;100.00
5595;BME280;1003;48.002;7.788;2023-02-21T08:02:46;100256.94;;;3.42;100.00
5595;BME280;1003;48.002;7.788;2023-02-21T08:05:15;100233.44;;;3.56;100.00
5595;BME280;1003;48.002;7.788;2023-02-21T08:07:43;100201.50;;;3.67;100.00
5595;BME280;1003;48.002;7.788;2023-02-21T08:10:12;100168.97;;;3.86;100.00
5595;BME280;1003;48.002;7.788;2023-02-21T08:12:39;100141.28;;;4.01;100.00
5595;BME280;1003;48.002;7.788;2023-02-21T08:15:08;100103.66;;;4.19;100.00
5595;BME280;1003;48.002;7.788;2023-02-21T08:17:35;100085.03;;;4.33;100.00
5595;BME280;1003;48.002;7.788;2023-02-21T08:20:03;100062.25;;;4.48;100.00
5595;BME280;1003;48.002;7.788;2023-02-21T08:22:30;100044.31;;;4.60;100.00
5595;BME280;1003;48.002;7.788;2023-02-21T08:24:57;100020.53;;;4.71;100.00
5595;BME280;1003;48.002;7.788;2023-02-21T08:27:24;100006.66;;;4.79;100.00
5595;BME280;1003;48.002;7.788;2023-02-21T08:29:52;100022.44;;;4.80;100.00
5595;BME280;1003;48.002;7.788;2023-02-21T08:32:20;100047.75;;;4.95;100.00
5595;BME280;1003;48.002;7.788;2023-02-21T08:34:48;100062.97;;;5.06;100.00
5595;BME280;1003;48.002;7.788;2023-02-21T08:37:16;100085.75;;;5.19;100.00
5595;BME280;1003;48.002;7.788;2023-02-21T08:39:45;100105.47;;;5.43;100.00
5595;BME280;1003;48.002;7.788;2023-02-21T08:42:13;100098.38;;;5.59;100.00
5595;BME280;1003;48.002;7.788;2023-02-21T08:44:43;100093.28;;;5.87;100.00
5595;BME280;1003;48.002;7.788;2023-02-21T08:47:10;100074.59;;;6.06;100.00
5595;BME280;1003;48.002;7.788;2023-02-21T08:49:39;100052.44;;;6.20;100.00
5595;BME280;1003;48.002;7.788;2023-02-21T08:52:08;100025.03;;;6.21;100.00
5595;BME280;1003;48.002;7.788;2023-02-21T08:54:35;100011.31;;;6.43;100.00
5595;BME280;1003;48.002;7.788;2023-02-21T08:57:03;99980.63;;;6.49;100.00
5595;BME280;1003;48.002;7.788;2023-02-21T08:59:30;99948.16;;;6.47;100.00
5595;BME280;1003;48.002;7.788;2023-02-21T09:01:58;99910.13;;;6.62;100.00
5595;BME280;1003;48.002;7.788;2023-02-21T09:04:25;99888.66;;;6.73;100.00
5595;BME280;1003;48.002;7.788;2023-02-21T09:06:55;99857.78;;;6.68;100.00
5595;BME280;1003;48.002;7.788;2023-02-21T09:09:22;99834.50;;;6.72;100.00
5595;BME280;1003;48.002;7.788;2023-02-21T09:11:49;99825.47;;;6.79;100.00
5595;BME280;1003;48.002;7.788;2023-02-21T09:14:16;99799.59;;;6.75;100.00
5595;BME280;1003;48.002;7.788;2023-02-21T09:16:43;99777.41;;;6.97;100.00
5595;BME280;1003;48.002;7.788;2023-02-21T09:19:10;99762.00;;;7.28;100.00
5595;BME280;1003;48.002;7.788;2023-02-21T09:21:43;99735.53;;;7.46;100.00
5595;BME280;1003;48.002;7.788;2023-02-21T09:24:13;99702.25;;;7.53;100.00
5595;BME280;1003;48.002;7.788;2023-02-21T09:26:40;99705.50;;;7.43;100.00
5595;BME280;1003;48.002;7.788;2023-02-21T09:29:07;99726.59;;;7.65;100.00
5595;BME280;1003;48.002;7.788;2023-02-21T09:31:36;99724.25;;;7.83;100.00
5595;BME280;1003;48.002;7.788;2023-02-21T09:34:03;99716.03;;;7.95;100.00
5595;BME280;1003;48.002;7.788;2023-02-21T09:36:30;99706.19;;;8.16;100.00
5595;BME280;1003;48.002;7.788;2023-02-21T09:39:01;99687.88;;;8.20;100.00
5595;BME280;1003;48.002;7.788;2023-02-21T09:41:33;99670.34;;;8.23;100.00
5595;BME280;1003;48.002;7.788;2023-02-21T09:44:03;99661.31;;;8.36;100.00
5595;BME280;1003;48.002;7.788;2023-02-21T09:46:37;99631.25;;;8.36;100.00
5595;BME280;1003;48.002;7.788;2023-02-21T09:49:14;99614.59;;;8.43;100.00
5595;BME280;1003;48.002;7.788;2023-02-21T09:51:43;99607.94;;;8.48;100.00
5595;BME280;1003;48.002;7.788;2023-02-21T09:54:22;99600.44;;;8.54;100.00
5595;BME280;1003;48.002;7.788;2023-02-21T09:56:55;99588.88;;;8.85;100.00
5595;BME280;1003;48.002;7.788;2023-02-21T09:59:24;99571.41;;;9.11;100.00
5595;BME280;1003;48.002;7.788;2023-02-21T10:02:13;99547.19;;;9.39;100.00
5595;BME280;1003;48.002;7.788;2023-02-21T10:05:00;99522.94;;;9.52;100.00
5595;BME280;1003;48.002;7.788;2023-02-21T10:07:39;99504.56;;;9.45;100.00
5595;BME280;1003;48.002;7.788;2023-02-21T10:10:15;99486.16;;;9.43;100.00
5595;BME280;1003;48.002;7.788;2023-02-21T10:12:53;99457.75;;;9.42;100.00
5595;BME280;1003;48.002;7.788;2023-02-21T10:15:44;99452.66;;;9.73;100.00
5595;BME280;1003;48.002;7.788;2023-02-21T10:18:28;99426.72;;;9.72;100.00
5595;BME280;1003;48.002;7.788;2023-02-21T10:21:01;99404.06;;;9.89;100.00
5595;BME280;1003;48.002;7.788;2023-02-21T10:23:36;99393.16;;;9.95;100.00
5595;BME280;1003;48.002;7.788;2023-02-21T10:26:08;99365.47;;;10.09;100.00
5595;BME280;1003;48.002;7.788;2023-02-21T10:28:38;99336.06;;;10.35;100.00
5595;BME280;1003;48.002;7.788;2023-02-21T10:31:11;99294.03;;;10.54;100.00
5595;BME280;1003;48.002;7.788;2023-02-21T10:33:40;99263.16;;;10.41;100.00
5595;BME280;1003;48.002;7.788;2023-02-21T10:36:12;99239.53;;;10.59;100.00
5595;BME280;1003;48.002;7.788;2023-02-21T10:38:54;99192.47;;;10.73;100.00
5595;BME280;1003;48.002;7.788;2023-02-21T10:41:24;99169.97;;;10.63;100.00
5595;BME280;1003;48.002;7.788;2023-02-21T10:44:02;99162.34;;;10.72;100.00
5595;BME280;1003;48.002;7.788;2023-02-21T10:46:34;99162.16;;;10.86;100.00
5595;BME280;1003;48.002;7.788;2023-02-21T10:49:21;99171.94;;;11.10;100.00
5595;BME280;1003;48.002;7.788;2023-02-21T10:52:09;99176.91;;;11.16;100.00
5595;BME280;1003;48.002;7.788;2023-02-21T10:54:37;99178.47;;;11.23;100.00
5595;BME280;1003;48.002;7.788;2023-02-21T10:57:07;99182.44;;;11.40;100.00
5595;BME280;1003;48.002;7.788;2023-02-21T10:59:41;99184.00;;;11.50;100.00
5595;BME280;1003;48.002;7.788;2023-02-21T11:02:29;99188.03;;;11.62;100.00
5595;BME280;1003;48.002;7.788;2023-02-21T11:05:10;99195.72;;;11.51;100.00
5595;BME280;1003;48.002;7.788;2023-02-21T11:07:37;99196.34;;;11.68;100.00
5595;BME280;1003;48.002;7.788;2023-02-21T11:10:30;99198.00;;;11.69;100.00
5595;BME280;1003;48.002;7.788;2023-02-21T11:13:10;99190.38;;;11.74;100.00
5595;BME280;1003;48.002;7.788;2023-02-21T11:15:40;99196.94;;;11.86;100.00
5595;BME280;1003;48.002;7.788;2023-02-21T11:18:17;99195.09;;;11.97;100.00
5595;BME280;1003;48.002;7.788;2023-02-21T11:20:46;99190.84;;;11.99;100.00
5595;BME280;1003;48.002;7.788;2023-02-21T11:23:23;99190.63;;;12.14;100.00
5595;BME280;1003;48.002;7.788;2023-02-21T11:25:58;99187.88;;;12.28;100.00
5595;BME280;1003;48.002;7.788;2023-02-21T11:28:37;99198.47;;;12.47;100.00
5595;BME280;1003;48.002;7.788;2023-02-21T11:31:15;99206.09;;;12.44;100.00
5595;BME280;1003;48.002;7.788;2023-02-21T11:33:53;99196.69;;;12.52;100.00
5595;BME280;1003;48.002;7.788;2023-02-21T11:36:27;99202.44;;;12.60;100.00
5595;BME280;1003;48.002;7.788;2023-02-21T11:39:04;99197.25;;;12.68;100.00
5595;BME280;1003;48.002;7.788;2023-02-21T11:41:45;99199.19;;;12.55;100.00
5595;BME280;1003;48.002;7.788;2023-02-21T11:44:26;99196.56;;;12.59;100.00
5595;BME280;1003;48.002;7.788;2023-02-21T11:47:08;99191.97;;;12.81;100.00
5595;BME280;1003;48.002;7.788;2023-02-21T11:49:50;99181.91;;;12.78;100.00
5595;BME280;1003;48.002;7.788;2023-02-21T11:52:24;99185.88;;;12.92;100.00
5595;BME280;1003;48.002;7.788;2023-02-21T11:54:52;99179.84;;;12.99;100.00
5595;BME280;1003;48.002;7.788;2023-02-21T11:57:26;99172.94;;;13.07;100.00
5595;BME280;1003;48.002;7.788;2023-02-21T12:00:09;99167.75;;;13.14;100.00
5595;BME280;1003;48.002;7.788;2023-02-21T12:03:01;99161.28;;;13.03;100.00
5595;BME280;1003;48.002;7.788;2023-02-21T12:05:44;99166.09;;;13.13;100.00
5595;BME280;1003;48.002;7.788;2023-02-21T12:08:43;99165.69;;;13.33;100.00
5595;BME280;1003;48.002;7.788;2023-02-21T12:11:43;99156.41;;;13.35;100.00
5595;BME280;1003;48.002;7.788;2023-02-21T12:14:28;99150.34;;;13.43;100.00
5595;BME280;1003;48.002;7.788;2023-02-21T12:17:18;99152.13;;;13.37;100.00
5595;BME280;1003;48.002;7.788;2023-02-21T12:20:14;99143.34;;;13.54;100.00
5595;BME280;1003;48.002;7.788;2023-02-21T12:23:00;99147.78;;;13.44;100.00
5595;BME280;1003;48.002;7.788;2023-02-21T12:25:37;99138.16;;;13.61;100.00
5595;BME280;1003;48.002;7.788;2023-02-21T12:28:22;99144.09;;;13.59;100.00
5595;BME280;1003;48.002;7.788;2023-02-21T12:31:13;99139.63;;;13.70;100.00
5595;BME280;1003;48.002;7.788;2023-02-21T12:33:59;99137.66;;;13.81;100.00
5595;BME280;1003;48.002;7.788;2023-02-21T12:36:48;99132.84;;;13.72;100.00
5595;BME280;1003;48.002;7.788;2023-02-21T12:39:37;99117.53;;;13.78;100.00
5595;BME280;1003;48.002;7.788;2023-02-21T12:42:36;99125.44;;;13.99;100.00
5595;BME280;1003;48.002;7.788;2023-02-21T12:45:32;99134.03;;;14.26;100.00
5595;BME280;1003;48.002;7.788;2023-02-21T12:48:11;99133.59;;;14.10;100.00
5595;BME280;1003;48.002;7.788;2023-02-21T12:50:48;99132.03;;;14.06;100.00
5595;BME280;1003;48.002;7.788;2023-02-21T12:53:24;99133.34;;;14.19;100.00
5595;BME280;1003;48.002;7.788;2023-02-21T12:55:59;99135.06;;;14.18;100.00
5595;BME280;1003;48.002;7.788;2023-02-21T12:58:33;99126.97;;;14.38;100.00
5595;BME280;1003;48.002;7.788;2023-02-21T13:01:07;99131.97;;;14.40;100.00
5595;BME280;1003;48.002;7.788;2023-02-21T13:03:55;99133.03;;;14.31;100.00
5595;BME280;1003;48.002;7.788;2023-02-21T13:06:32;99137.59;;;14.18;100.00
5595;BME280;1003;48.002;7.788;2023-02-21T13:09:14;99138.03;;;14.34;100.00
5595;BME280;1003;48.002;7.788;2023-02-21T13:11:55;99119.84;;;14.53;100.00
5595;BME280;1003;48.002;7.788;2023-02-21T13:14:31;99126.59;;;14.54;100.00
5595;BME280;1003;48.002;7.788;2023-02-21T13:17:00;99134.97;;;14.56;100.00
5595;BME280;1003;48.002;7.788;2023-02-21T13:19:39;99145.72;;;14.64;100.00
5595;BME280;1003;48.002;7.788;2023-02-21T13:22:45;99150.88;;;14.59;97.29
5595;BME280;1003;48.002;7.788;2023-02-21T13:25:50;99134.44;;;14.74;100.00
5595;BME280;1003;48.002;7.788;2023-02-21T13:28:23;99117.41;;;14.81;100.00
5595;BME280;1003;48.002;7.788;2023-02-21T13:30:56;99109.00;;;14.80;100.00
5595;BME280;1003;48.002;7.788;2023-02-21T13:33:29;99111.28;;;14.88;100.00
5595;BME280;1003;48.002;7.788;2023-02-21T13:36:20;99105.22;;;14.93;100.00
5595;BME280;1003;48.002;7.788;2023-02-21T13:39:00;99104.03;;;15.05;100.00
5595;BME280;1003;48.002;7.788;2023-02-21T13:41:34;99110.59;;;15.12;98.29
5595;BME280;1003;48.002;7.788;2023-02-21T13:44:07;99110.22;;;14.96;97.84
5595;BME280;1003;48.002;7.788;2023-02-21T13:47:09;99102.69;;;15.23;99.16
5595;BME280;1003;48.002;7.788;2023-02-21T13:49:57;99094.09;;;15.27;100.00
5595;BME280;1003;48.002;7.788;2023-02-21T13:53:00;99091.28;;;15.36;100.00
5595;BME280;1003;48.002;7.788;2023-02-21T13:55:31;99086.84;;;15.43;100.00
5595;BME280;1003;48.002;7.788;2023-02-21T13:58:30;99082.31;;;15.26;98.24
5595;BME280;1003;48.002;7.788;2023-02-21T14:01:39;99055.88;;;15.35;85.13
5595;BME280;1003;48.002;7.788;2023-02-21T14:08:01;99040.03;;;15.28;94.61